createdAt,value
2022-09-24T00:01:34.503Z,2.27
2022-09-24T00:04:05.033Z,2.03
2022-09-24T00:06:38.665Z,1.93
2022-09-24T00:09:05.441Z,2.00
2022-09-24T00:11:32.746Z,1.77
2022-09-24T00:14:00.286Z,2.87
2022-09-24T00:16:30.604Z,2.20
2022-09-24T00:18:58.875Z,2.03
2022-09-24T00:21:28.376Z,2.00
2022-09-24T00:24:00.369Z,2.30
2022-09-24T00:26:46.186Z,2.50
2022-09-24T00:29:16.462Z,2.20
2022-09-24T00:31:43.410Z,2.03
2022-09-24T00:34:10.571Z,1.90
2022-09-24T00:36:37.644Z,2.67
2022-09-24T00:39:05.334Z,1.90
2022-09-24T00:41:35.248Z,2.77
2022-09-24T00:44:02.344Z,1.80
2022-09-24T00:46:39.575Z,2.37
2022-09-24T00:49:12.746Z,2.67
2022-09-24T00:51:40.004Z,2.13
2022-09-24T00:54:13.613Z,2.73
2022-09-24T00:56:41.252Z,1.93
2022-09-24T00:59:11.618Z,2.00
2022-09-24T01:01:38.337Z,2.47
2022-09-24T01:04:06.459Z,2.30
2022-09-24T01:06:33.826Z,2.67
2022-09-24T01:09:00.776Z,1.90
2022-09-24T01:11:36.634Z,1.80
2022-09-24T01:14:34.024Z,1.93
2022-09-24T01:17:19.038Z,2.40
2022-09-24T01:20:11.316Z,2.23
2022-09-24T01:22:41.004Z,2.00
2022-09-24T01:25:38.467Z,2.23
2022-09-24T01:28:20.321Z,1.83
2022-09-24T01:30:49.766Z,1.90
2022-09-24T01:33:20.670Z,1.90
2022-09-24T01:35:57.206Z,2.10
2022-09-24T01:38:27.007Z,2.87
2022-09-24T01:40:54.750Z,2.60
2022-09-24T01:43:23.946Z,2.10
2022-09-24T01:45:51.364Z,1.87
2022-09-24T01:48:21.316Z,1.50
2022-09-24T01:51:09.496Z,2.70
2022-09-24T01:53:47.739Z,1.37
2022-09-24T01:56:18.968Z,2.23
2022-09-24T01:58:50.396Z,1.97
2022-09-24T02:01:29.249Z,2.30
2022-09-24T02:04:03.696Z,2.20
2022-09-24T02:06:38.037Z,2.00
2022-09-24T02:09:05.033Z,1.93
2022-09-24T02:11:33.418Z,2.43
2022-09-24T02:14:10.799Z,3.07
2022-09-24T02:16:48.098Z,2.07
2022-09-24T02:19:19.409Z,3.00
2022-09-24T02:21:46.774Z,2.23
2022-09-24T02:24:17.056Z,2.20
2022-09-24T02:26:43.752Z,1.60
2022-09-24T02:29:10.644Z,2.47
2022-09-24T02:31:48.656Z,2.03
2022-09-24T02:34:22.125Z,1.43
2022-09-24T02:36:50.885Z,2.40
2022-09-24T02:39:18.224Z,1.73
2022-09-24T02:41:48.814Z,2.30
2022-09-24T02:44:16.686Z,2.17
2022-09-24T02:46:44.665Z,1.43
2022-09-24T02:49:12.286Z,2.03
2022-09-24T02:51:39.178Z,2.17
2022-09-24T02:54:06.505Z,1.90
2022-09-24T02:56:33.587Z,2.67
2022-09-24T02:59:02.875Z,2.10
2022-09-24T03:01:30.378Z,2.30
2022-09-24T03:03:57.618Z,2.30
2022-09-24T03:06:27.437Z,1.93
2022-09-24T03:08:54.524Z,2.00
2022-09-24T03:11:22.396Z,1.73
2022-09-24T03:13:49.947Z,2.13
2022-09-24T03:16:17.856Z,1.63
2022-09-24T03:18:46.784Z,2.10
2022-09-24T03:21:15.404Z,2.03
2022-09-24T03:23:42.106Z,1.97
2022-09-24T03:26:09.321Z,2.10
2022-09-24T03:28:36.258Z,1.90
2022-09-24T03:31:03.357Z,2.17
2022-09-24T03:33:37.976Z,2.13
2022-09-24T03:36:12.251Z,1.60
2022-09-24T03:38:40.666Z,1.90
2022-09-24T03:41:08.224Z,2.20
2022-09-24T03:43:35.477Z,2.77
2022-09-24T03:46:03.028Z,3.00
2022-09-24T03:48:32.516Z,3.00
2022-09-24T03:51:11.116Z,2.50
2022-09-24T03:53:38.604Z,2.40
2022-09-24T03:56:06.447Z,2.33
2022-09-24T03:58:38.073Z,2.13
2022-09-24T04:01:09.597Z,2.47
2022-09-24T04:03:36.784Z,2.07
2022-09-24T04:06:04.625Z,2.73
2022-09-24T04:08:31.795Z,2.67
2022-09-24T04:10:59.028Z,2.47
2022-09-24T04:13:25.946Z,2.60
2022-09-24T04:15:53.802Z,1.93
2022-09-24T04:18:21.147Z,2.27
2022-09-24T04:20:47.906Z,2.50
2022-09-24T04:23:14.693Z,2.40
2022-09-24T04:25:41.478Z,2.40
2022-09-24T04:28:09.272Z,2.30
2022-09-24T04:30:36.785Z,2.40
2022-09-24T04:33:03.489Z,2.50
2022-09-24T04:35:32.227Z,2.70
2022-09-24T04:37:59.530Z,2.23
2022-09-24T04:40:27.085Z,2.33
2022-09-24T04:42:54.173Z,2.27
2022-09-24T04:45:21.746Z,2.30
2022-09-24T04:47:58.706Z,2.53
2022-09-24T04:50:27.424Z,2.60
2022-09-24T04:52:54.882Z,2.77
2022-09-24T04:55:22.344Z,2.33
2022-09-24T04:57:49.290Z,2.10
2022-09-24T05:00:18.478Z,2.33
2022-09-24T05:02:45.601Z,1.63
2022-09-24T05:05:13.363Z,1.90
2022-09-24T05:07:41.135Z,2.40
2022-09-24T05:10:08.173Z,2.60
2022-09-24T05:12:36.517Z,1.97
2022-09-24T05:15:04.373Z,5.33
2022-09-24T05:17:31.196Z,6.60
2022-09-24T05:20:01.531Z,4.00
2022-09-24T05:22:28.171Z,4.10
2022-09-24T05:24:54.734Z,2.93
2022-09-24T05:27:23.266Z,4.53
2022-09-24T05:29:50.453Z,3.63
2022-09-24T05:32:19.086Z,4.43
2022-09-24T05:34:46.655Z,3.60
2022-09-24T05:37:14.247Z,3.70
2022-09-24T05:39:40.860Z,3.47
2022-09-24T05:42:10.296Z,3.90
2022-09-24T05:44:37.380Z,4.20
2022-09-24T05:47:04.108Z,3.57
2022-09-24T05:49:30.736Z,3.90
2022-09-24T05:51:57.539Z,3.47
2022-09-24T05:54:24.207Z,3.87
2022-09-24T05:56:51.002Z,3.30
2022-09-24T05:59:17.774Z,3.87
2022-09-24T06:01:45.171Z,3.53
2022-09-24T06:04:12.812Z,3.33
2022-09-24T06:06:39.571Z,4.10
2022-09-24T06:09:06.444Z,3.50
2022-09-24T06:11:40.071Z,3.37
2022-09-24T06:14:08.854Z,3.40
2022-09-24T06:16:36.298Z,6.30
2022-09-24T06:19:03.156Z,5.17
2022-09-24T06:21:29.940Z,4.97
2022-09-24T06:23:56.527Z,5.30
2022-09-24T06:26:23.262Z,5.57
2022-09-24T06:28:50.030Z,6.90
2022-09-24T06:31:17.015Z,4.90
2022-09-24T06:33:44.880Z,5.13
2022-09-24T06:36:11.534Z,7.03
2022-09-24T06:38:40.424Z,7.50
2022-09-24T06:41:07.276Z,6.17
2022-09-24T06:43:34.700Z,6.07
2022-09-24T06:46:02.074Z,7.07
2022-09-24T06:48:29.511Z,5.60
2022-09-24T06:50:56.594Z,4.37
2022-09-24T06:53:23.673Z,4.77
2022-09-24T06:55:50.638Z,4.27
2022-09-24T06:58:21.139Z,3.97
2022-09-24T07:00:59.486Z,3.00
2022-09-24T07:03:27.291Z,2.90
2022-09-24T07:05:54.620Z,3.27
2022-09-24T07:08:22.094Z,3.10
2022-09-24T07:10:52.641Z,3.33
2022-09-24T07:13:21.298Z,5.67
2022-09-24T07:15:52.915Z,4.80
2022-09-24T07:18:20.697Z,4.20
2022-09-24T07:20:56.128Z,4.13
2022-09-24T07:23:23.093Z,4.20
2022-09-24T07:25:51.335Z,5.30
2022-09-24T07:28:19.097Z,4.10
2022-09-24T07:30:46.001Z,3.20
2022-09-24T07:33:12.715Z,4.47
2022-09-24T07:35:40.109Z,3.67
2022-09-24T07:38:12.111Z,3.40
2022-09-24T07:40:39.434Z,2.47
2022-09-24T07:43:11.891Z,3.77
2022-09-24T07:45:38.867Z,3.13
2022-09-24T07:48:06.194Z,2.50
2022-09-24T07:50:35.399Z,2.87
2022-09-24T07:53:02.040Z,2.50
2022-09-24T07:55:28.869Z,2.40
2022-09-24T07:57:56.024Z,3.20
2022-09-24T08:00:24.272Z,3.03
2022-09-24T08:02:53.296Z,3.00
2022-09-24T08:05:20.030Z,2.97
2022-09-24T08:07:54.553Z,3.27
2022-09-24T08:10:21.722Z,3.43
2022-09-24T08:12:48.472Z,2.07
2022-09-24T08:15:15.770Z,2.10
2022-09-24T08:17:42.906Z,3.03
2022-09-24T08:20:10.204Z,2.53
2022-09-24T08:22:37.000Z,2.80
2022-09-24T08:25:04.705Z,2.47
2022-09-24T08:27:33.070Z,2.10
2022-09-24T08:30:00.838Z,2.80
2022-09-24T08:32:29.567Z,3.23
2022-09-24T08:34:56.426Z,2.63
2022-09-24T08:37:23.126Z,2.23
2022-09-24T08:39:49.906Z,2.53
2022-09-24T08:42:42.316Z,2.87
2022-09-24T08:45:29.038Z,2.50
2022-09-24T08:48:00.600Z,2.97
2022-09-24T08:50:35.310Z,2.90
2022-09-24T08:53:27.388Z,4.50
2022-09-24T08:55:56.516Z,3.10
2022-09-24T08:58:25.579Z,3.10
2022-09-24T09:01:15.040Z,3.67
2022-09-24T09:04:05.449Z,2.93
2022-09-24T09:06:56.753Z,3.43
2022-09-24T09:09:38.483Z,3.00
2022-09-24T09:12:13.599Z,3.10
2022-09-24T09:14:52.425Z,2.37
2022-09-24T09:17:28.082Z,2.97
2022-09-24T09:19:57.938Z,3.20
2022-09-24T09:22:30.474Z,2.87
2022-09-24T09:25:15.758Z,3.03
2022-09-24T09:27:42.548Z,3.83
2022-09-24T09:30:14.450Z,3.83
2022-09-24T09:32:56.601Z,3.37
2022-09-24T09:35:30.868Z,3.17
2022-09-24T09:38:06.666Z,3.23
2022-09-24T09:40:41.925Z,2.60
2022-09-24T09:43:11.407Z,3.23
2022-09-24T09:45:57.038Z,3.77
2022-09-24T09:48:26.307Z,3.33
2022-09-24T09:50:57.938Z,3.20
2022-09-24T09:53:26.575Z,3.90
2022-09-24T09:55:57.772Z,3.30
2022-09-24T09:58:26.537Z,4.17
2022-09-24T10:00:53.920Z,4.27
2022-09-24T10:03:26.420Z,3.40
2022-09-24T10:05:58.628Z,4.17
2022-09-24T10:08:25.927Z,3.70
2022-09-24T10:11:03.424Z,4.87
2022-09-24T10:13:33.165Z,3.87
2022-09-24T10:16:03.993Z,3.07
2022-09-24T10:18:35.800Z,2.90
2022-09-24T10:21:06.950Z,2.90
2022-09-24T10:23:44.393Z,2.50
2022-09-24T10:26:11.380Z,2.50
2022-09-24T10:29:00.975Z,3.00
2022-09-24T10:31:30.793Z,2.50
2022-09-24T10:33:59.415Z,3.37
2022-09-24T10:36:32.611Z,3.17
2022-09-24T10:39:04.671Z,2.60
2022-09-24T10:41:32.135Z,3.57
2022-09-24T10:44:13.486Z,1.87
2022-09-24T10:46:46.990Z,2.47
2022-09-24T10:49:39.446Z,2.60
2022-09-24T10:52:51.174Z,2.70
2022-09-24T10:55:21.476Z,2.30
2022-09-24T10:57:57.160Z,1.70
2022-09-24T11:00:25.849Z,2.83
2022-09-24T11:03:40.375Z,1.87
2022-09-24T11:06:18.262Z,3.37
2022-09-24T11:08:50.405Z,3.07
2022-09-24T11:11:20.957Z,2.13
2022-09-24T11:13:59.836Z,2.10
2022-09-24T11:16:44.907Z,2.03
2022-09-24T11:19:31.818Z,1.77
2022-09-24T11:22:14.779Z,2.10
2022-09-24T11:25:04.679Z,2.93
2022-09-24T11:27:40.195Z,1.57
2022-09-24T11:30:21.548Z,2.80
2022-09-24T11:33:12.346Z,2.53
2022-09-24T11:36:00.935Z,1.97
2022-09-24T11:39:05.437Z,1.97
2022-09-24T11:41:53.108Z,1.80
2022-09-24T11:44:27.211Z,2.63
2022-09-24T11:47:00.466Z,2.10
2022-09-24T11:49:45.238Z,2.07
2022-09-24T11:52:15.946Z,1.93
2022-09-24T11:55:04.147Z,2.30
2022-09-24T11:57:46.689Z,2.03
2022-09-24T12:00:20.824Z,2.23
2022-09-24T12:02:51.078Z,2.10
2022-09-24T12:05:33.029Z,2.23
2022-09-24T12:08:27.874Z,2.20
2022-09-24T12:11:01.632Z,2.40
2022-09-24T12:13:32.082Z,2.57
2022-09-24T12:16:01.676Z,2.90
2022-09-24T12:18:45.216Z,3.20
2022-09-24T12:21:21.294Z,1.97
2022-09-24T12:23:49.443Z,2.00
2022-09-24T12:26:17.574Z,2.40
2022-09-24T12:29:12.087Z,2.60
2022-09-24T12:32:25.548Z,2.90
2022-09-24T12:35:02.619Z,2.17
2022-09-24T12:37:33.589Z,2.37
2022-09-24T12:40:25.228Z,2.10
2022-09-24T12:42:55.281Z,2.87
2022-09-24T12:45:22.681Z,5.00
2022-09-24T12:47:53.864Z,5.30
2022-09-24T12:50:28.780Z,5.07
2022-09-24T12:52:55.793Z,6.13
2022-09-24T12:55:25.647Z,4.73
2022-09-24T12:57:52.616Z,4.70
2022-09-24T13:00:41.928Z,4.17
2022-09-24T13:03:34.905Z,4.07
2022-09-24T13:06:02.052Z,3.80
2022-09-24T13:08:39.986Z,3.00
2022-09-24T13:11:36.680Z,2.87
2022-09-24T13:14:19.284Z,2.70
2022-09-24T13:16:51.464Z,2.77
2022-09-24T13:19:36.745Z,3.00
2022-09-24T13:22:03.865Z,2.80
2022-09-24T13:24:37.336Z,2.50
2022-09-24T13:27:24.335Z,2.73
2022-09-24T13:30:09.622Z,2.30
2022-09-24T13:32:46.655Z,2.20
2022-09-24T13:35:22.287Z,2.50
2022-09-24T13:38:07.017Z,2.83
2022-09-24T13:40:37.803Z,2.20
2022-09-24T13:43:14.443Z,2.67
2022-09-24T13:45:44.160Z,3.57
2022-09-24T13:48:36.790Z,2.50
2022-09-24T13:51:04.578Z,2.50
2022-09-24T13:53:41.063Z,2.80
2022-09-24T13:56:15.193Z,3.53
2022-09-24T13:58:43.191Z,2.90
2022-09-24T14:01:22.309Z,2.73
2022-09-24T14:03:57.639Z,2.43
2022-09-24T14:06:52.060Z,2.40
2022-09-24T14:09:33.095Z,2.50
2022-09-24T14:12:03.383Z,3.00
2022-09-24T14:14:34.488Z,2.70
2022-09-24T14:17:09.085Z,2.20
2022-09-24T14:19:36.266Z,2.33
2022-09-24T14:22:04.062Z,3.67
2022-09-24T14:24:55.610Z,2.60
2022-09-24T14:27:23.469Z,2.70
2022-09-24T14:29:58.781Z,2.57
2022-09-24T14:32:31.252Z,2.70
2022-09-24T14:35:00.303Z,2.40
2022-09-24T14:37:32.511Z,1.73
2022-09-24T14:40:05.411Z,2.60
2022-09-24T14:42:46.985Z,2.77
2022-09-24T14:45:40.606Z,5.03
2022-09-24T14:48:34.271Z,4.20
2022-09-24T14:51:01.174Z,4.93
2022-09-24T14:53:31.051Z,3.00
2022-09-24T14:55:57.888Z,2.60
2022-09-24T14:58:31.406Z,3.07
2022-09-24T15:01:00.626Z,3.00
2022-09-24T15:03:50.705Z,3.17
2022-09-24T15:06:25.214Z,3.50
2022-09-24T15:09:01.361Z,3.60
2022-09-24T15:11:31.399Z,3.87
2022-09-24T15:14:00.053Z,3.30
2022-09-24T15:16:30.597Z,4.20
2022-09-24T15:19:16.941Z,4.90
2022-09-24T15:21:45.198Z,3.70
2022-09-24T15:24:12.251Z,3.53
2022-09-24T15:26:42.202Z,3.60
2022-09-24T15:29:16.303Z,2.47
2022-09-24T15:31:42.976Z,2.60
2022-09-24T15:34:10.182Z,7.47
2022-09-24T15:36:37.173Z,6.27
2022-09-24T15:39:04.601Z,4.03
2022-09-24T15:41:31.313Z,6.23
2022-09-24T15:43:59.215Z,5.40
2022-09-24T15:46:26.747Z,3.60
2022-09-24T15:48:53.699Z,3.50
2022-09-24T15:51:22.968Z,3.63
2022-09-24T15:53:50.469Z,2.40
2022-09-24T15:56:17.334Z,3.17
2022-09-24T15:58:43.918Z,2.77
2022-09-24T16:01:17.065Z,2.73
2022-09-24T16:03:44.497Z,2.30
2022-09-24T16:06:12.354Z,2.00
2022-09-24T16:08:38.982Z,2.40
2022-09-24T16:11:08.988Z,2.37
2022-09-24T16:13:35.941Z,2.77
2022-09-24T16:16:05.432Z,2.30
2022-09-24T16:18:32.474Z,4.77
2022-09-24T16:20:59.064Z,4.27
2022-09-24T16:23:25.954Z,3.43
2022-09-24T16:25:58.191Z,3.63
2022-09-24T16:28:25.813Z,3.73
2022-09-24T16:30:53.009Z,4.00
2022-09-24T16:33:21.114Z,4.60
2022-09-24T16:35:47.921Z,2.50
2022-09-24T16:38:17.731Z,2.27
2022-09-24T16:40:48.494Z,2.37
2022-09-24T16:43:15.963Z,2.30
2022-09-24T16:45:42.651Z,2.10
2022-09-24T16:48:11.548Z,2.33
2022-09-24T16:50:39.826Z,3.33
2022-09-24T16:53:06.421Z,2.80
2022-09-24T16:55:33.105Z,3.10
2022-09-24T16:58:00.536Z,3.17
2022-09-24T17:00:27.442Z,2.30
2022-09-24T17:02:54.202Z,3.50
2022-09-24T17:05:20.893Z,5.90
2022-09-24T17:07:47.570Z,4.73
2022-09-24T17:10:15.556Z,3.53
2022-09-24T17:12:48.305Z,2.60
2022-09-24T17:15:16.941Z,2.13
2022-09-24T17:17:49.543Z,2.47
2022-09-24T17:20:17.133Z,1.77
2022-09-24T17:22:43.712Z,2.30
2022-09-24T17:25:10.487Z,2.63
2022-09-24T17:27:37.137Z,2.80
2022-09-24T17:30:05.504Z,2.33
2022-09-24T17:32:32.275Z,3.60
2022-09-24T17:34:59.069Z,3.57
2022-09-24T17:37:27.385Z,3.10
2022-09-24T17:39:54.065Z,3.17
2022-09-24T17:42:20.659Z,2.73
2022-09-24T17:44:47.342Z,2.73
2022-09-24T17:47:14.080Z,2.70
2022-09-24T17:49:40.682Z,2.67
2022-09-24T17:52:07.542Z,2.40
2022-09-24T17:54:34.700Z,2.80
2022-09-24T17:57:02.121Z,2.57
2022-09-24T17:59:28.811Z,3.10
2022-09-24T18:01:55.682Z,2.40
2022-09-24T18:04:22.445Z,2.67
2022-09-24T18:06:49.452Z,2.20
2022-09-24T18:09:17.290Z,2.30
2022-09-24T18:11:46.918Z,2.23
2022-09-24T18:14:16.977Z,2.60
2022-09-24T18:16:44.298Z,4.10
2022-09-24T18:19:12.446Z,2.83
2022-09-24T18:21:40.043Z,3.00
2022-09-24T18:24:07.210Z,6.60
2022-09-24T18:26:35.652Z,3.53
2022-09-24T18:29:13.727Z,4.30
2022-09-24T18:31:41.518Z,4.77
2022-09-24T18:34:09.307Z,3.00
2022-09-24T18:36:38.270Z,2.60
2022-09-24T18:39:06.778Z,2.07
2022-09-24T18:41:33.676Z,3.50
2022-09-24T18:44:00.752Z,2.50
2022-09-24T18:46:29.696Z,3.13
2022-09-24T18:48:57.403Z,2.40
2022-09-24T18:51:26.176Z,3.00
2022-09-24T18:54:05.019Z,2.80
2022-09-24T18:56:32.206Z,2.87
2022-09-24T18:59:07.290Z,2.60
2022-09-24T19:01:36.967Z,2.70
2022-09-24T19:04:03.969Z,2.10
2022-09-24T19:06:31.841Z,2.50
2022-09-24T19:08:58.559Z,2.80
2022-09-24T19:11:25.209Z,2.63
2022-09-24T19:13:54.069Z,3.07
2022-09-24T19:16:25.533Z,3.10
2022-09-24T19:18:53.651Z,3.83
2022-09-24T19:21:21.513Z,2.40
2022-09-24T19:23:49.925Z,3.17
2022-09-24T19:26:19.398Z,2.70
2022-09-24T19:28:46.995Z,3.03
2022-09-24T19:31:23.933Z,2.40
2022-09-24T19:33:51.981Z,2.03
2022-09-24T19:36:19.570Z,3.00
2022-09-24T19:38:47.580Z,2.93
2022-09-24T19:41:21.530Z,2.23
2022-09-24T19:43:50.925Z,3.33
2022-09-24T19:46:18.721Z,3.00
2022-09-24T19:48:47.581Z,3.20
2022-09-24T19:51:15.908Z,2.93
2022-09-24T19:53:43.246Z,3.73
2022-09-24T19:56:14.388Z,4.13
2022-09-24T19:58:41.351Z,4.03
2022-09-24T20:01:11.412Z,2.90
2022-09-24T20:03:41.813Z,3.80
2022-09-24T20:06:17.181Z,2.97
2022-09-24T20:08:44.386Z,2.43
2022-09-24T20:11:15.105Z,3.40
2022-09-24T20:13:47.617Z,3.33
2022-09-24T20:16:19.189Z,3.53
2022-09-24T20:18:47.443Z,4.03
2022-09-24T20:21:18.491Z,3.80
2022-09-24T20:23:46.551Z,3.53
2022-09-24T20:26:32.829Z,3.53
2022-09-24T20:28:59.557Z,3.60
2022-09-24T20:31:26.256Z,3.30
2022-09-24T20:33:52.945Z,3.20
2022-09-24T20:36:24.103Z,3.60
2022-09-24T20:38:52.116Z,3.07
2022-09-24T20:41:23.962Z,3.57
2022-09-24T20:43:51.542Z,3.10
2022-09-24T20:46:21.954Z,2.87
2022-09-24T20:48:48.733Z,4.13
2022-09-24T20:51:18.148Z,3.20
2022-09-24T20:53:45.858Z,3.23
2022-09-24T20:56:12.791Z,2.90
2022-09-24T20:58:40.200Z,2.80
2022-09-24T21:01:10.398Z,3.20
2022-09-24T21:03:46.240Z,2.73
2022-09-24T21:06:14.942Z,3.40
2022-09-24T21:08:43.785Z,2.93
2022-09-24T21:11:18.578Z,2.63
2022-09-24T21:13:56.807Z,3.10
2022-09-24T21:16:25.716Z,4.13
2022-09-24T21:18:54.461Z,3.50
2022-09-24T21:21:23.320Z,2.60
2022-09-24T21:23:51.485Z,3.60
2022-09-24T21:26:23.077Z,3.40
2022-09-24T21:28:52.996Z,3.50
2022-09-24T21:31:23.712Z,4.30
2022-09-24T21:33:54.948Z,5.17
2022-09-24T21:36:24.335Z,5.30
2022-09-24T21:39:00.023Z,5.97
2022-09-24T21:41:34.322Z,5.97
2022-09-24T21:44:01.304Z,5.00
2022-09-24T21:46:31.401Z,4.30
2022-09-24T21:48:59.134Z,3.33
2022-09-24T21:51:26.985Z,3.50
2022-09-24T21:54:01.972Z,3.00
2022-09-24T21:56:29.989Z,3.17
2022-09-24T21:58:57.080Z,3.40
2022-09-24T22:01:33.952Z,4.07
2022-09-24T22:04:07.128Z,2.97
2022-09-24T22:06:33.817Z,3.03
2022-09-24T22:09:05.764Z,2.90
2022-09-24T22:11:34.556Z,2.70
2022-09-24T22:14:02.491Z,2.23
2022-09-24T22:16:31.071Z,2.83
2022-09-24T22:18:58.314Z,2.70
2022-09-24T22:21:25.077Z,2.67
2022-09-24T22:23:51.629Z,3.20
2022-09-24T22:26:18.657Z,2.83
2022-09-24T22:28:45.632Z,2.60
2022-09-24T22:31:14.562Z,3.33
2022-09-24T22:33:59.922Z,3.00
2022-09-24T22:36:30.518Z,3.40
2022-09-24T22:38:58.113Z,2.70
2022-09-24T22:41:26.422Z,3.57
2022-09-24T22:43:53.089Z,2.83
2022-09-24T22:46:20.048Z,3.60
2022-09-24T22:48:47.623Z,3.00
2022-09-24T22:51:14.689Z,3.07
2022-09-24T22:53:41.780Z,2.97
2022-09-24T22:56:09.939Z,3.77
2022-09-24T22:58:37.642Z,3.70
2022-09-24T23:01:09.493Z,4.47
2022-09-24T23:03:36.927Z,3.60
2022-09-24T23:06:06.201Z,3.23
2022-09-24T23:08:34.701Z,3.87
2022-09-24T23:11:12.682Z,3.23
2022-09-24T23:13:41.841Z,4.80
2022-09-24T23:16:17.660Z,3.47
2022-09-24T23:18:46.633Z,3.03
2022-09-24T23:21:16.047Z,2.97
2022-09-24T23:23:43.671Z,3.77
2022-09-24T23:26:16.619Z,2.83
2022-09-24T23:28:44.743Z,2.93
2022-09-24T23:31:13.834Z,2.90
2022-09-24T23:33:42.328Z,3.27
2022-09-24T23:36:11.141Z,4.37
2022-09-24T23:38:38.341Z,3.67
2022-09-24T23:41:05.956Z,2.90
2022-09-24T23:43:33.367Z,3.40
2022-09-24T23:46:01.325Z,3.93
2022-09-24T23:48:28.462Z,2.97
2022-09-24T23:50:55.303Z,3.03
2022-09-24T23:53:22.310Z,3.10
2022-09-24T23:55:49.542Z,2.90
2022-09-24T23:58:18.432Z,2.90
